createdAt,value
2019-06-10T00:00:44.843Z,12.40
2019-06-10T00:03:15.308Z,12.40
2019-06-10T00:05:45.735Z,12.40
2019-06-10T00:08:16.160Z,12.50
2019-06-10T00:10:46.793Z,12.40
2019-06-10T00:13:17.221Z,12.50
2019-06-10T00:15:47.650Z,12.40
2019-06-10T00:25:52.020Z,12.40
2019-06-10T00:28:22.444Z,12.20
2019-06-10T00:30:52.872Z,12.10
2019-06-10T00:33:23.298Z,12.10
2019-06-10T00:35:53.717Z,12.10
2019-06-10T00:38:24.155Z,12.20
2019-06-10T00:40:54.570Z,12.20
2019-06-10T00:43:25.006Z,12.10
2019-06-10T00:45:55.434Z,12.10
2019-06-10T00:48:29.097Z,12.20
2019-06-10T00:50:58.073Z,12.20
2019-06-10T00:53:28.753Z,12.20
2019-06-10T00:56:01.515Z,12.10
2019-06-10T00:58:32.017Z,12.20
2019-06-10T01:01:03.959Z,12.10
2019-06-10T01:03:34.669Z,12.10
2019-06-10T01:06:06.388Z,12.10
2019-06-10T01:08:36.947Z,12.10
2019-06-10T01:11:12.601Z,12.10
2019-06-10T01:13:41.369Z,12.00
2019-06-10T01:16:13.511Z,12.00
2019-06-10T01:18:44.171Z,12.00
2019-06-10T01:21:15.557Z,12.00
2019-06-10T01:23:46.242Z,12.00
2019-06-10T01:26:18.233Z,12.00
2019-06-10T01:28:48.757Z,11.90
2019-06-10T01:31:23.980Z,11.90
2019-06-10T01:33:51.442Z,11.80
2019-06-10T01:36:21.884Z,11.80
2019-06-10T01:38:52.310Z,11.80
2019-06-10T01:41:22.739Z,11.70
2019-06-10T01:43:53.175Z,11.70
2019-06-10T01:46:24.728Z,11.70
2019-06-10T01:48:55.156Z,11.70
2019-06-10T01:51:26.607Z,11.60
2019-06-10T01:53:57.182Z,11.60
2019-06-10T01:56:27.666Z,11.60
2019-06-10T01:58:58.093Z,11.60
2019-06-10T02:01:34.725Z,11.60
2019-06-10T02:04:05.397Z,11.50
2019-06-10T02:06:35.828Z,11.40
2019-06-10T02:09:09.605Z,11.40
2019-06-10T02:11:41.361Z,11.50
2019-06-10T02:14:14.410Z,11.50
2019-06-10T02:16:44.072Z,11.50
2019-06-10T02:19:16.023Z,11.50
2019-06-10T02:21:46.991Z,11.50
2019-06-10T02:24:17.959Z,11.50
2019-06-10T02:26:51.649Z,11.50
2019-06-10T02:29:23.427Z,11.50
2019-06-10T02:31:54.846Z,11.50
2019-06-10T02:34:27.474Z,11.50
2019-06-10T02:36:57.334Z,11.40
2019-06-10T02:42:04.482Z,11.40
2019-06-10T02:44:37.694Z,11.40
2019-06-10T02:47:07.644Z,11.30
2019-06-10T02:49:56.410Z,11.30
2019-06-10T02:52:22.868Z,11.30
2019-06-10T02:54:53.650Z,11.30
2019-06-10T02:57:31.986Z,11.20
2019-06-10T02:59:57.187Z,11.30
2019-06-10T03:02:31.531Z,11.30
2019-06-10T03:04:59.667Z,11.30
2019-06-10T03:07:32.639Z,11.30
2019-06-10T03:10:04.640Z,11.30
2019-06-10T03:12:35.464Z,11.30
2019-06-10T03:15:06.525Z,11.30
2019-06-10T03:17:36.956Z,11.30
2019-06-10T03:20:08.123Z,11.20
2019-06-10T03:22:38.755Z,11.20
2019-06-10T03:25:13.100Z,11.20
2019-06-10T03:27:43.250Z,11.20
2019-06-10T03:30:20.956Z,11.20
2019-06-10T03:32:47.498Z,11.20
2019-06-10T03:35:19.138Z,11.20
2019-06-10T03:37:52.697Z,11.20
2019-06-10T03:40:24.713Z,11.20
2019-06-10T03:42:54.931Z,11.20
2019-06-10T03:45:26.724Z,11.20
2019-06-10T03:47:57.634Z,11.20
2019-06-10T03:50:28.727Z,11.30
2019-06-10T03:53:01.308Z,11.30
2019-06-10T03:55:33.036Z,11.30
2019-06-10T03:58:03.629Z,11.20
2019-06-10T04:00:36.911Z,11.20
2019-06-10T04:03:06.122Z,11.20
2019-06-10T04:05:37.310Z,11.10
2019-06-10T04:08:07.797Z,11.20
2019-06-10T04:10:39.414Z,11.20
2019-06-10T04:13:10.047Z,11.20
2019-06-10T04:15:42.888Z,11.20
2019-06-10T04:18:12.831Z,11.20
2019-06-10T04:20:43.354Z,11.20
2019-06-10T04:23:13.951Z,11.20
2019-06-10T04:25:45.094Z,11.20
2019-06-10T04:28:15.513Z,11.20
2019-06-10T04:30:46.963Z,11.20
2019-06-10T04:33:18.350Z,11.10
2019-06-10T04:35:48.950Z,11.20
2019-06-10T04:38:20.965Z,11.10
2019-06-10T04:40:52.561Z,11.10
2019-06-10T05:51:02.900Z,11.00
2019-06-10T05:53:33.562Z,12.00
2019-06-10T05:56:03.431Z,12.20
2019-06-10T05:58:35.913Z,12.40
2019-06-10T06:06:06.878Z,12.60
2019-06-10T06:08:37.584Z,13.30
2019-06-10T07:23:49.515Z,13.40
2019-06-10T07:28:49.429Z,15.80
2019-06-10T07:33:52.636Z,16.30
2019-06-10T07:36:23.737Z,17.00
2019-06-10T07:38:54.379Z,17.40
2019-06-10T07:41:24.841Z,17.60
2019-06-10T07:43:55.473Z,17.60
2019-06-10T07:46:25.890Z,17.50
2019-06-10T07:48:56.776Z,17.40
2019-06-10T07:51:27.271Z,17.00
2019-06-10T07:53:57.683Z,17.00
2019-06-10T07:56:31.691Z,17.00
2019-06-10T07:59:00.289Z,16.90
2019-06-10T08:01:33.339Z,16.90
2019-06-10T08:04:03.213Z,16.90
2019-06-10T08:06:35.149Z,16.90
2019-06-10T08:09:07.218Z,16.70
2019-06-10T08:11:39.469Z,16.50
2019-06-10T08:14:10.114Z,16.60
2019-06-10T08:16:45.098Z,17.20
2019-06-10T08:19:29.910Z,18.00
2019-06-10T08:21:49.219Z,19.10
2019-06-10T08:24:18.793Z,20.10
2019-06-10T08:26:49.674Z,21.10
2019-06-10T08:29:20.060Z,22.30
2019-06-10T08:31:53.011Z,23.00
2019-06-10T08:34:22.650Z,23.70
2019-06-10T08:36:54.372Z,24.70
2019-06-10T08:39:33.258Z,25.80
2019-06-10T08:42:03.455Z,27.10
2019-06-10T08:44:33.870Z,27.90
2019-06-10T08:47:04.401Z,27.50
2019-06-10T08:49:34.838Z,26.30
2019-06-10T08:52:05.562Z,24.60
2019-06-10T08:54:37.545Z,23.10
2019-06-10T08:57:08.054Z,21.90
2019-06-10T08:59:39.925Z,21.10
2019-06-10T09:02:12.316Z,20.50
2019-06-10T09:04:46.020Z,19.70
2019-06-10T09:07:15.155Z,19.00
2019-06-10T09:09:48.515Z,18.70
2019-06-10T09:12:30.445Z,18.60
2019-06-10T09:14:50.660Z,18.50
2019-06-10T09:17:22.837Z,18.20
2019-06-10T09:19:54.281Z,18.20
2019-06-10T09:22:24.970Z,18.70
2019-06-10T09:24:56.477Z,19.40
2019-06-10T09:27:27.231Z,19.50
2019-06-10T09:29:57.746Z,19.40
2019-06-10T09:32:28.176Z,19.30
2019-06-10T09:34:58.614Z,19.20
2019-06-10T09:37:29.543Z,19.40
2019-06-10T09:40:00.060Z,19.70
2019-06-10T09:42:30.495Z,19.90
2019-06-10T09:45:02.635Z,20.10
2019-06-10T09:47:34.715Z,20.20
2019-06-10T09:50:06.130Z,20.30
2019-06-10T09:52:36.610Z,20.30
2019-06-10T09:55:08.051Z,21.00
2019-06-10T09:57:38.474Z,22.80
2019-06-10T10:00:12.466Z,23.50
2019-06-10T10:02:47.447Z,23.50
2019-06-10T10:05:15.706Z,24.10
2019-06-10T10:07:49.913Z,25.20
2019-06-10T10:10:24.027Z,26.40
2019-06-10T10:12:55.766Z,27.00
2019-06-10T10:15:30.788Z,25.90
2019-06-10T10:17:58.402Z,24.20
2019-06-10T10:20:28.917Z,23.10
2019-06-10T10:22:59.389Z,22.40
2019-06-10T10:25:32.631Z,22.30
2019-06-10T10:28:03.222Z,21.90
2019-06-10T10:30:33.808Z,21.70
2019-06-10T10:33:04.223Z,21.90
2019-06-10T10:35:34.858Z,22.00
2019-06-10T10:38:06.540Z,22.40
2019-06-10T10:40:37.086Z,22.50
2019-06-10T10:43:23.396Z,23.60
2019-06-10T10:45:45.309Z,26.10
2019-06-10T10:48:14.808Z,28.20
2019-06-10T10:50:45.604Z,30.10
2019-06-10T10:53:16.654Z,32.40
2019-06-10T10:55:47.226Z,34.10
2019-06-10T10:58:19.033Z,32.60
2019-06-10T11:00:51.629Z,34.10
2019-06-10T11:03:23.679Z,35.70
2019-06-10T11:06:00.950Z,35.80
2019-06-10T11:08:27.410Z,36.70
2019-06-10T11:11:03.659Z,37.10
2019-06-10T11:13:36.064Z,37.60
2019-06-10T11:16:06.676Z,37.70
2019-06-10T11:18:37.106Z,38.20
2019-06-10T11:21:08.760Z,38.20
2019-06-10T11:23:39.278Z,36.40
2019-06-10T11:26:12.175Z,33.90
2019-06-10T11:28:43.029Z,31.70
2019-06-10T11:31:14.247Z,29.60
2019-06-10T11:33:44.688Z,27.60
2019-06-10T11:36:15.134Z,25.80
2019-06-10T11:39:05.932Z,23.90
2019-06-10T11:41:36.490Z,22.30
2019-06-10T11:44:09.063Z,20.20
2019-06-10T11:46:39.549Z,18.50
2019-06-10T11:49:12.580Z,17.90
2019-06-10T11:51:43.238Z,16.90
2019-06-10T11:54:13.794Z,16.10
2019-06-10T11:56:44.227Z,15.70
2019-06-10T11:59:16.089Z,14.90
2019-06-10T12:01:46.514Z,14.30
2019-06-10T12:04:17.145Z,13.70
2019-06-10T12:06:48.621Z,13.30
2019-06-10T12:09:19.128Z,13.00
2019-06-10T12:11:50.672Z,13.00
2019-06-10T12:14:24.528Z,12.80
2019-06-10T12:19:25.855Z,12.80
2019-06-10T12:21:59.722Z,12.70
2019-06-10T12:24:28.350Z,12.80
2019-06-10T12:27:00.229Z,12.90
2019-06-10T12:29:30.837Z,13.00
2019-06-10T12:32:05.743Z,13.10
2019-06-10T12:34:34.583Z,13.20
2019-06-10T12:37:11.110Z,13.20
2019-06-10T12:39:37.740Z,13.30
2019-06-10T12:42:11.105Z,13.30
2019-06-10T12:44:42.710Z,13.40
2019-06-10T12:47:12.741Z,13.50
2019-06-10T12:49:43.165Z,13.70
2019-06-10T12:52:13.589Z,13.60
2019-06-10T12:54:44.074Z,13.80
2019-06-10T12:57:16.480Z,14.00
2019-06-10T12:59:46.817Z,14.10
2019-06-10T13:02:22.998Z,14.40
2019-06-10T13:04:52.122Z,14.70
2019-06-10T13:07:25.236Z,15.00
2019-06-10T13:09:57.886Z,15.40
2019-06-10T13:12:28.374Z,16.00
2019-06-10T13:14:59.868Z,16.60
2019-06-10T13:17:30.502Z,17.30
2019-06-10T13:20:01.992Z,17.70
2019-06-10T13:22:33.049Z,19.10
2019-06-10T13:25:04.714Z,21.60
2019-06-10T13:27:35.226Z,24.00
2019-06-10T13:30:06.524Z,26.60
2019-06-10T13:32:37.310Z,27.20
2019-06-10T13:35:07.811Z,28.10
2019-06-10T13:37:39.210Z,30.30
2019-06-10T13:40:12.890Z,32.50
2019-06-10T13:42:42.714Z,33.80
2019-06-10T13:45:14.189Z,35.00
2019-06-10T13:47:44.642Z,36.10
2019-06-10T13:50:19.306Z,35.40
2019-06-10T13:52:48.913Z,33.40
2019-06-10T13:55:19.659Z,32.50
2019-06-10T13:57:53.332Z,31.80
2019-06-10T14:00:37.754Z,32.10
2019-06-10T14:02:55.946Z,33.10
2019-06-10T14:05:26.594Z,32.70
2019-06-10T14:07:57.110Z,30.70
2019-06-10T14:10:27.546Z,29.20
2019-06-10T14:12:57.986Z,27.90
2019-06-10T14:15:28.400Z,26.80
2019-06-10T14:17:58.931Z,26.00
2019-06-10T14:20:29.400Z,25.40
2019-06-10T14:22:59.887Z,24.90
2019-06-10T14:25:30.312Z,24.50
2019-06-10T14:28:03.205Z,25.10
2019-06-10T14:30:33.835Z,27.10
2019-06-10T14:33:05.409Z,29.10
2019-06-10T14:35:36.106Z,30.70
2019-06-10T14:38:06.881Z,32.30
2019-06-10T14:40:38.576Z,33.10
2019-06-10T14:43:10.276Z,32.30
2019-06-10T14:45:59.544Z,30.50
2019-06-10T14:48:30.147Z,29.30
2019-06-10T14:51:03.072Z,27.80
2019-06-10T14:53:33.726Z,26.90
2019-06-10T14:56:05.949Z,27.10
2019-06-10T14:58:36.587Z,28.30
2019-06-10T15:01:10.083Z,29.30
2019-06-10T15:03:40.003Z,29.40
2019-06-10T15:06:11.342Z,28.20
2019-06-10T15:08:42.864Z,26.60
2019-06-10T15:11:13.733Z,25.50
2019-06-10T15:13:44.164Z,25.10
2019-06-10T15:16:16.548Z,24.50
2019-06-10T15:18:47.271Z,24.30
2019-06-10T15:21:17.922Z,24.00
2019-06-10T15:23:52.180Z,23.80
2019-06-10T15:26:22.224Z,23.50
2019-06-10T15:28:52.797Z,23.20
2019-06-10T15:31:23.297Z,22.60
2019-06-10T15:33:54.531Z,22.00
2019-06-10T15:36:25.184Z,21.60
2019-06-10T15:38:55.625Z,21.40
2019-06-10T15:41:26.302Z,21.20
2019-06-10T15:43:56.754Z,21.10
2019-06-10T15:46:27.194Z,21.00
2019-06-10T15:48:57.924Z,20.60
2019-06-10T15:51:28.767Z,20.20
2019-06-10T15:53:59.238Z,19.80
2019-06-10T15:56:39.822Z,19.60
2019-06-10T15:59:02.985Z,19.50
2019-06-10T16:01:33.546Z,19.30
2019-06-10T16:04:03.967Z,19.30
2019-06-10T16:06:34.610Z,19.10
2019-06-10T16:09:06.667Z,19.30
2019-06-10T16:11:40.158Z,19.30
2019-06-10T16:14:09.817Z,19.40
2019-06-10T16:16:40.303Z,19.50
2019-06-10T16:19:12.855Z,19.70
2019-06-10T16:21:44.855Z,19.90
2019-06-10T16:24:16.826Z,20.00
2019-06-10T16:26:47.540Z,20.00
2019-06-10T16:29:19.034Z,20.00
2019-06-10T16:31:49.518Z,19.90
2019-06-10T16:34:21.242Z,19.70
2019-06-10T16:36:53.249Z,19.60
2019-06-10T16:39:24.253Z,19.60
2019-06-10T16:41:55.936Z,19.50
2019-06-10T16:44:28.126Z,19.50
2019-06-10T16:47:00.083Z,19.60
2019-06-10T16:49:32.673Z,19.70
2019-06-10T16:52:03.794Z,19.70
2019-06-10T16:54:34.219Z,19.00
2019-06-10T16:57:04.712Z,18.90
2019-06-10T16:59:35.171Z,18.90
2019-06-10T17:02:05.804Z,19.00
2019-06-10T17:04:36.541Z,19.10
2019-06-10T17:07:06.966Z,19.10
2019-06-10T17:09:37.686Z,19.00
2019-06-10T17:12:08.230Z,19.10
2019-06-10T17:14:38.646Z,19.10
2019-06-10T17:17:09.094Z,19.10
2019-06-10T17:19:39.511Z,19.00
2019-06-10T17:22:09.937Z,18.90
2019-06-10T17:24:42.226Z,18.80
2019-06-10T17:27:13.113Z,18.80
2019-06-10T17:29:44.130Z,18.70
2019-06-10T17:32:14.620Z,18.50
2019-06-10T17:34:45.041Z,18.40
2019-06-10T17:37:16.641Z,18.30
2019-06-10T17:39:47.137Z,18.00
2019-06-10T17:42:24.163Z,17.80
2019-06-10T17:44:52.979Z,17.60
2019-06-10T17:47:24.536Z,17.20
2019-06-10T17:49:56.787Z,16.90
2019-06-10T17:52:28.126Z,16.60
2019-06-10T17:54:58.594Z,16.40
2019-06-10T17:57:30.480Z,16.00
2019-06-10T18:00:07.324Z,15.70
2019-06-10T18:02:38.424Z,15.40
2019-06-10T18:05:07.359Z,15.30
2019-06-10T18:07:37.912Z,15.10
2019-06-10T18:10:08.840Z,15.00
2019-06-10T18:12:39.254Z,14.90
2019-06-10T18:15:12.386Z,14.80
2019-06-10T18:17:42.703Z,14.70
2019-06-10T18:20:13.664Z,14.70
2019-06-10T18:22:44.330Z,14.60
2019-06-10T18:25:15.446Z,14.50
2019-06-10T18:27:45.923Z,14.50
2019-06-10T18:30:16.759Z,14.50
2019-06-10T18:32:47.230Z,14.50
2019-06-10T18:35:17.910Z,14.50
2019-06-10T18:37:48.354Z,14.40
2019-06-10T18:40:20.073Z,14.40
2019-06-10T18:42:52.284Z,14.30
2019-06-10T18:45:25.669Z,14.20
2019-06-10T18:47:56.454Z,14.20
2019-06-10T18:50:28.029Z,14.20
2019-06-10T18:53:00.795Z,14.20
2019-06-10T18:55:35.988Z,14.10
2019-06-10T18:58:05.121Z,14.00
2019-06-10T19:00:54.586Z,14.00
2019-06-10T19:03:13.018Z,13.90
2019-06-10T19:05:42.682Z,13.80
2019-06-10T19:08:15.108Z,13.60
2019-06-10T19:10:47.064Z,13.60
2019-06-10T19:13:17.632Z,13.60
2019-06-10T19:15:48.353Z,13.60
2019-06-10T19:18:19.387Z,13.60
2019-06-10T19:20:52.383Z,13.60
2019-06-10T19:23:23.375Z,13.50
2019-06-10T19:25:54.526Z,13.40
2019-06-10T19:28:25.582Z,13.30
2019-06-10T19:30:56.203Z,13.30
2019-06-10T19:33:27.561Z,13.30
2019-06-10T19:35:58.936Z,13.30
2019-06-10T19:38:31.998Z,13.30
2019-06-10T19:41:03.431Z,13.40
2019-06-10T19:43:36.534Z,13.40
2019-06-10T19:46:08.563Z,13.40
2019-06-10T19:48:48.051Z,13.40
2019-06-10T19:51:14.461Z,13.30
2019-06-10T19:53:46.768Z,13.10
2019-06-10T19:56:19.099Z,13.00
2019-06-10T19:58:50.181Z,12.80
2019-06-10T20:01:22.600Z,12.70
2019-06-10T20:03:53.875Z,12.50
2019-06-10T20:06:24.811Z,12.50
2019-06-10T20:08:55.320Z,12.40
2019-06-10T20:11:27.132Z,12.30
2019-06-10T20:13:57.659Z,12.20
2019-06-10T20:16:28.357Z,12.10
2019-06-10T20:18:59.097Z,12.10
2019-06-10T20:21:29.787Z,11.90
2019-06-10T20:24:02.537Z,11.80
2019-06-10T20:26:32.929Z,11.70
2019-06-10T20:29:03.918Z,11.60
2019-06-10T20:31:35.800Z,11.50
2019-06-10T20:34:08.441Z,11.40
2019-06-10T20:36:39.392Z,11.30
2019-06-10T20:39:10.947Z,11.30
2019-06-10T20:41:47.299Z,11.30
2019-06-10T20:44:13.698Z,11.40
2019-06-10T20:46:46.163Z,11.40
2019-06-10T20:49:16.261Z,11.40
2019-06-10T20:52:01.609Z,11.40
2019-06-10T20:54:19.641Z,11.50
2019-06-10T20:56:53.448Z,11.50
2019-06-10T20:59:26.178Z,11.50
2019-06-10T21:01:57.027Z,11.50
2019-06-10T21:04:27.456Z,11.50
2019-06-10T21:07:02.482Z,11.50
2019-06-10T21:09:33.743Z,11.50
2019-06-10T21:12:05.280Z,11.50
2019-06-10T21:14:35.820Z,11.50
2019-06-10T21:17:06.255Z,11.50
2019-06-10T21:19:36.676Z,11.50
2019-06-10T21:22:07.102Z,11.50
2019-06-10T21:24:40.425Z,11.50
2019-06-10T21:27:10.927Z,11.50
2019-06-10T21:29:44.046Z,11.40
2019-06-10T21:32:13.407Z,11.40
2019-06-10T21:34:47.693Z,11.20
2019-06-10T21:37:18.339Z,11.10
2019-06-10T21:39:49.616Z,11.00
2019-06-10T22:14:56.001Z,10.90
2019-06-10T22:17:26.428Z,10.20
2019-06-10T22:19:56.857Z,10.20
2019-06-10T22:22:27.279Z,10.10
2019-06-10T22:24:57.701Z,10.10
2019-06-10T22:27:28.146Z,10.10
2019-06-10T22:29:58.666Z,10.10
2019-06-10T22:32:29.082Z,10.00
2019-06-10T22:37:29.129Z,10.00
2019-06-10T22:39:59.602Z,9.90
2019-06-10T22:42:30.125Z,9.90
2019-06-10T22:45:03.582Z,9.80
2019-06-10T22:47:32.667Z,9.80
2019-06-10T22:50:07.164Z,9.80
2019-06-10T22:52:35.314Z,9.80
2019-06-10T22:55:05.954Z,9.80
2019-06-10T22:57:37.869Z,9.80
2019-06-10T23:00:09.523Z,9.80
2019-06-10T23:02:39.953Z,9.80
2019-06-10T23:05:13.050Z,9.80
2019-06-10T23:07:43.369Z,9.80
2019-06-10T23:10:14.001Z,9.70
2019-06-10T23:12:44.387Z,9.70
2019-06-10T23:15:14.837Z,9.70
2019-06-10T23:17:45.286Z,9.70
2019-06-10T23:20:15.907Z,9.70
2019-06-10T23:22:46.543Z,9.80
2019-06-10T23:25:18.297Z,9.80
2019-06-10T23:27:49.991Z,9.90
2019-06-10T23:30:22.468Z,9.90
2019-06-10T23:32:55.834Z,9.90
2019-06-10T23:35:25.125Z,9.80
2019-06-10T23:37:57.237Z,9.90
2019-06-10T23:40:27.622Z,9.80
2019-06-10T23:42:58.998Z,9.80
2019-06-10T23:45:29.539Z,9.80
2019-06-10T23:48:01.315Z,9.80
2019-06-10T23:50:33.310Z,9.80
2019-06-10T23:53:07.544Z,9.80
2019-06-10T23:55:35.959Z,9.80
2019-06-10T23:58:06.437Z,9.80
